Time;durP1;ratioP1;P1;durP2;ratioP2;P2;SDS_P1;SDS_P2;PMS_P1;PMS_P2;Temp;Humidity;BMP_temperature;BMP_pressure;BME280_temperature;BME280_humidity;BME280_pressure;Samples;Min_cycle;Max_cycle;Signal;HPM_P1;HPM_P2
2021/03/05 00:00:24;;;;;;;15.60;9.03;;;-0.10;96.30;;;;;;4992548;28;20212;-70
2021/03/05 00:02:49;;;;;;;14.33;9.27;;;-0.10;96.30;;;;;;4992799;28;20181;-70
2021/03/05 00:05:16;;;;;;;15.30;8.83;;;-0.10;96.30;;;;;;4992563;28;20459;-70
2021/03/05 00:07:42;;;;;;;22.10;9.47;;;-0.10;96.30;;;;;;4992005;28;20280;-70
2021/03/05 00:10:14;;;;;;;20.40;9.40;;;-0.10;96.30;;;;;;4992452;28;20972;-70
2021/03/05 00:12:39;;;;;;;14.10;8.80;;;0.00;96.30;;;;;;4992675;28;20665;-70
2021/03/05 00:15:07;;;;;;;11.73;7.80;;;0.00;96.30;;;;;;4991495;28;20483;-70
2021/03/05 00:17:33;;;;;;;16.27;10.63;;;-0.10;96.30;;;;;;4992021;28;20181;-70
2021/03/05 00:19:58;;;;;;;17.47;10.17;;;-0.10;96.30;;;;;;4992586;28;20519;-70
2021/03/05 00:22:24;;;;;;;17.97;10.00;;;-0.10;96.30;;;;;;4992578;28;20634;-70
2021/03/05 00:24:50;;;;;;;16.57;9.93;;;-0.10;96.30;;;;;;4992344;28;20197;-70
2021/03/05 00:27:15;;;;;;;15.83;8.83;;;-0.10;96.30;;;;;;4991841;28;20267;-70
2021/03/05 00:29:41;;;;;;;15.97;9.47;;;-0.20;96.30;;;;;;4991623;28;20546;-70
2021/03/05 00:32:07;;;;;;;16.70;9.70;;;-0.20;96.30;;;;;;4992514;28;20227;-70
2021/03/05 00:34:34;;;;;;;14.47;9.03;;;-0.20;96.30;;;;;;4992372;28;20197;-70
2021/03/05 00:36:59;;;;;;;16.53;10.13;;;-0.20;96.30;;;;;;4991692;28;20188;-70
2021/03/05 00:39:25;;;;;;;11.60;7.80;;;-0.20;96.30;;;;;;4992405;28;20511;-70
2021/03/05 00:41:50;;;;;;;13.73;9.67;;;-0.20;96.30;;;;;;4992345;28;20178;-70
2021/03/05 00:44:16;;;;;;;17.80;9.63;;;-0.20;96.30;;;;;;4992388;28;20566;-70
2021/03/05 00:46:41;;;;;;;15.57;8.60;;;-0.20;96.30;;;;;;4992301;28;20170;-70
2021/03/05 00:49:07;;;;;;;20.23;10.00;;;-0.20;96.30;;;;;;4991764;28;20642;-71
2021/03/05 00:51:32;;;;;;;13.70;9.50;;;-0.20;96.30;;;;;;4995043;28;20205;-71
2021/03/05 00:53:58;;;;;;;14.60;10.00;;;-0.20;96.30;;;;;;4996041;28;20198;-70
2021/03/05 00:56:23;;;;;;;16.37;10.30;;;-0.20;96.30;;;;;;4996034;28;20577;-71
2021/03/05 00:58:49;;;;;;;13.70;9.07;;;-0.20;96.30;;;;;;4995416;28;20184;-71
2021/03/05 05:02:31;;;;;;;4.83;3.60;;;-0.30;96.30;;;;;;5061139;22;20487;-73
2021/03/05 05:04:56;;;;;;;7.90;4.40;;;-0.30;96.30;;;;;;4995853;28;20492;-72
2021/03/05 05:07:22;;;;;;;6.10;3.73;;;-0.30;96.30;;;;;;4993900;28;20225;-72
2021/03/05 05:09:47;;;;;;;6.17;4.00;;;-0.30;96.30;;;;;;4995766;28;20178;-72
2021/03/05 05:12:13;;;;;;;12.10;4.00;;;-0.40;96.30;;;;;;4995763;28;20193;-72
2021/03/05 05:14:38;;;;;;;5.30;3.80;;;-0.30;96.30;;;;;;4996402;28;20180;-72
2021/03/05 05:17:04;;;;;;;5.27;3.90;;;-0.30;96.30;;;;;;4995281;28;20214;-72
2021/03/05 05:19:30;;;;;;;6.03;3.60;;;-0.30;96.30;;;;;;4995677;28;20256;-72
2021/03/05 05:21:56;;;;;;;5.00;3.73;;;-0.30;96.30;;;;;;4994427;28;20491;-72
2021/03/05 05:24:22;;;;;;;7.00;3.87;;;-0.30;96.30;;;;;;4994780;28;20185;-72
2021/03/05 05:26:47;;;;;;;6.10;3.73;;;-0.40;96.30;;;;;;4994574;28;20416;-73
2021/03/05 05:29:13;;;;;;;5.73;3.70;;;-0.40;96.30;;;;;;4994798;28;20178;-72
2021/03/05 05:31:38;;;;;;;5.17;3.77;;;-0.40;96.30;;;;;;4991471;28;20213;-73
2021/03/05 05:34:04;;;;;;;3.00;2.70;;;-0.50;96.30;;;;;;4995196;28;20185;-73
2021/03/05 05:36:29;;;;;;;4.50;3.63;;;-0.60;96.30;;;;;;4994854;28;20599;-73
2021/03/05 05:38:55;;;;;;;9.43;3.43;;;-0.70;96.30;;;;;;4994808;28;20189;-74
2021/03/05 05:41:23;;;;;;;5.00;3.17;;;-0.80;96.30;;;;;;4995060;28;20200;-72
2021/03/05 05:43:49;;;;;;;5.97;3.20;;;-0.80;96.30;;;;;;4995270;28;20588;-72
2021/03/05 05:46:17;;;;;;;3.60;2.53;;;-0.80;96.30;;;;;;4995244;28;20455;-73
2021/03/05 05:48:47;;;;;;;3.80;3.43;;;-0.90;96.30;;;;;;4992977;28;20213;-73
2021/03/05 05:51:18;;;;;;;9.10;4.70;;;-0.90;96.30;;;;;;4995029;28;20464;-73
2021/03/05 05:53:46;;;;;;;6.47;4.07;;;-0.90;96.30;;;;;;4995068;28;21207;-73
2021/03/05 05:56:16;;;;;;;3.60;3.23;;;-0.90;96.30;;;;;;4994791;28;20412;-73
2021/03/05 05:58:42;;;;;;;6.23;4.20;;;-0.90;96.30;;;;;;4993594;28;20416;-73
2021/03/05 06:01:08;;;;;;;6.60;3.30;;;-1.00;96.30;;;;;;4994817;28;20464;-73
2021/03/05 06:03:34;;;;;;;5.90;3.53;;;-1.00;96.30;;;;;;4994792;28;20785;-73
2021/03/05 06:06:00;;;;;;;5.43;3.93;;;-1.00;96.30;;;;;;4992667;28;20189;-74
2021/03/05 06:08:28;;;;;;;4.33;3.40;;;-1.00;96.30;;;;;;5005980;28;20428;-73
2021/03/05 06:10:54;;;;;;;6.00;3.70;;;-1.00;96.30;;;;;;5003141;28;20204;-73
2021/03/05 06:13:20;;;;;;;3.53;3.20;;;-1.00;96.30;;;;;;5007810;28;20444;-73
2021/03/05 06:16:15;;;;;;;4.93;3.87;;;-1.00;96.30;;;;;;5011955;28;20519;-73
2021/03/05 06:18:42;;;;;;;4.53;3.90;;;-1.00;96.30;;;;;;4996936;28;20494;-73
2021/03/05 06:21:08;;;;;;;4.83;3.07;;;-1.00;96.30;;;;;;5013165;28;20478;-73
2021/03/05 06:23:35;;;;;;;4.00;2.53;;;-1.00;96.30;;;;;;5014176;28;20403;-74
2021/03/05 06:26:02;;;;;;;2.40;2.20;;;-1.00;96.30;;;;;;5013875;28;20908;-74
2021/03/05 06:28:28;;;;;;;6.57;3.40;;;-1.10;96.30;;;;;;5014046;28;20446;-75
2021/03/05 06:30:54;;;;;;;5.57;3.87;;;-1.10;96.30;;;;;;5013705;28;21087;-75
2021/03/05 06:33:30;;;;;;;5.23;3.40;;;-1.10;96.30;;;;;;5013837;28;20538;-75
2021/03/05 06:36:13;;;;;;;4.30;3.50;;;-1.10;96.30;;;;;;5012738;28;20416;-75
2021/03/05 06:38:44;;;;;;;3.40;2.90;;;-1.00;96.30;;;;;;5013126;28;20459;-74
2021/03/05 06:41:30;;;;;;;6.27;3.60;;;-1.00;96.30;;;;;;4999398;28;20893;-75
2021/03/05 06:44:00;;;;;;;3.90;3.50;;;-1.00;96.30;;;;;;4984656;28;20427;-74
2021/03/05 06:46:33;;;;;;;8.20;3.63;;;-1.00;96.30;;;;;;4993266;28;20413;-74
2021/03/05 06:49:00;;;;;;;5.20;3.33;;;-0.90;96.30;;;;;;4992744;28;20467;-74
2021/03/05 06:51:26;;;;;;;6.00;3.30;;;-0.90;96.30;;;;;;4993819;28;20468;-74
2021/03/05 06:54:21;;;;;;;4.50;2.63;;;-0.90;96.30;;;;;;4995918;28;20830;-74
2021/03/05 06:56:49;;;;;;;6.70;4.20;;;-0.90;96.30;;;;;;4972024;28;20197;-74
2021/03/05 06:59:17;;;;;;;9.47;3.37;;;-0.90;96.30;;;;;;4991350;28;20409;-74
2021/03/05 07:01:57;;;;;;;10.03;3.53;;;-0.90;96.30;;;;;;4993729;28;20456;-75
2021/03/05 07:04:24;;;;;;;4.90;2.90;;;-0.80;96.30;;;;;;4993800;28;20385;-74
2021/03/05 07:07:04;;;;;;;3.50;3.20;;;-0.60;96.30;;;;;;4999522;28;20412;-74
2021/03/05 07:09:34;;;;;;;5.20;3.30;;;-0.20;96.30;;;;;;5013309;28;20396;-74
2021/03/05 07:12:05;;;;;;;4.53;3.60;;;0.30;96.30;;;;;;5012201;28;20446;-74
2021/03/05 07:14:32;;;;;;;9.60;3.43;;;0.40;96.30;;;;;;4995596;28;20417;-73
2021/03/05 07:16:59;;;;;;;3.23;2.53;;;1.10;96.30;;;;;;4991501;28;20429;-72
2021/03/05 07:19:28;;;;;;;4.50;2.73;;;1.40;96.30;;;;;;4994599;28;20804;-72
2021/03/05 07:21:54;;;;;;;4.27;2.53;;;1.30;96.30;;;;;;4998278;28;20947;-72
2021/03/05 07:24:22;;;;;;;3.80;2.20;;;1.00;96.30;;;;;;4994819;28;20856;-72
2021/03/05 07:26:59;;;;;;;3.80;2.80;;;0.50;96.30;;;;;;4993428;28;20803;-72
2021/03/05 07:29:44;;;;;;;2.63;1.97;;;0.40;96.30;;;;;;4998593;28;20428;-71
2021/03/05 07:32:19;;;;;;;5.07;2.70;;;0.10;96.30;;;;;;4999470;28;20507;-71
2021/03/05 07:34:52;;;;;;;3.27;2.23;;;-0.10;96.30;;;;;;4998534;28;20896;-71
2021/03/05 07:37:18;;;;;;;2.37;1.80;;;-0.10;96.30;;;;;;4993448;28;20448;-71
2021/03/05 07:39:50;;;;;;;5.50;2.40;;;-0.20;96.30;;;;;;4993045;28;20500;-71
2021/03/05 07:42:16;;;;;;;2.30;2.10;;;-0.20;96.30;;;;;;4991494;28;20539;-71
2021/03/05 07:44:42;;;;;;;2.80;2.00;;;-0.20;96.30;;;;;;4992091;28;20441;-71
2021/03/05 07:47:10;;;;;;;4.23;3.03;;;-0.30;96.30;;;;;;4994804;28;20934;-71
2021/03/05 07:49:37;;;;;;;8.00;1.80;;;-0.20;96.30;;;;;;5002510;28;20783;-71
2021/03/05 07:52:04;;;;;;;5.33;2.20;;;-0.40;96.30;;;;;;4997917;28;20444;-71
2021/03/05 07:54:45;;;;;;;3.00;2.50;;;-0.40;96.30;;;;;;5002652;28;20408;-70
2021/03/05 07:57:13;;;;;;;2.90;2.10;;;-0.40;96.30;;;;;;4996196;28;20460;-70
2021/03/05 07:59:42;;;;;;;3.67;2.50;;;-0.40;96.30;;;;;;5006534;28;20424;-70
2021/03/05 08:02:08;;;;;;;2.70;2.07;;;-0.50;96.30;;;;;;5006155;28;20511;-70
2021/03/05 08:04:49;;;;;;;4.90;2.37;;;-0.60;96.30;;;;;;4992869;28;20639;-70
2021/03/05 08:07:22;;;;;;;5.20;2.60;;;-0.80;96.30;;;;;;4991822;28;20487;-70
2021/03/05 08:09:48;;;;;;;4.43;3.53;;;-1.00;96.30;;;;;;4991297;28;20421;-70
2021/03/05 08:12:28;;;;;;;6.53;2.97;;;-1.10;96.30;;;;;;5008937;28;20453;-70
2021/03/05 08:15:09;;;;;;;3.70;2.47;;;-1.10;96.30;;;;;;4971826;28;20606;-70
2021/03/05 08:17:48;;;;;;;4.90;2.50;;;-1.10;96.30;;;;;;4990678;28;20456;-70
2021/03/05 08:20:16;;;;;;;2.90;2.23;;;-1.20;96.30;;;;;;4992148;28;20503;-70
2021/03/05 08:23:03;;;;;;;4.70;2.50;;;-1.10;96.30;;;;;;4992040;28;20425;-70
2021/03/05 08:25:31;;;;;;;5.80;3.00;;;-1.00;96.30;;;;;;4992098;28;20420;-70
2021/03/05 08:27:58;;;;;;;5.40;1.77;;;-1.10;96.30;;;;;;4991321;28;20490;-70
2021/03/05 08:30:26;;;;;;;3.50;2.37;;;-1.10;96.30;;;;;;4992167;28;20413;-70
2021/03/05 08:33:05;;;;;;;6.73;2.80;;;-0.80;96.30;;;;;;4989609;28;20944;-70
2021/03/05 08:35:30;;;;;;;2.23;1.60;;;-0.80;96.30;;;;;;4980189;28;20478;-70
2021/03/05 08:38:01;;;;;;;4.70;2.87;;;-0.90;96.30;;;;;;4991478;28;20465;-70
2021/03/05 08:40:29;;;;;;;3.17;2.80;;;-0.90;96.30;;;;;;4992268;28;20198;-70
2021/03/05 08:43:09;;;;;;;3.50;2.57;;;-0.60;96.30;;;;;;5000791;28;20431;-70
2021/03/05 08:45:50;;;;;;;4.07;2.33;;;-0.60;96.30;;;;;;4991082;28;20797;-70
2021/03/05 08:48:26;;;;;;;5.60;2.83;;;-0.60;96.30;;;;;;4991760;28;20421;-70
2021/03/05 08:50:52;;;;;;;3.77;2.67;;;-0.90;96.30;;;;;;4991990;28;20535;-70
2021/03/05 08:53:17;;;;;;;2.90;2.17;;;-0.80;96.30;;;;;;4991928;28;20845;-70
2021/03/05 08:55:45;;;;;;;3.57;2.60;;;-0.60;96.30;;;;;;4990665;28;20174;-70
2021/03/05 08:58:15;;;;;;;5.23;2.37;;;-0.20;96.30;;;;;;4991643;28;20223;-70
2021/03/05 09:00:41;;;;;;;4.83;1.90;;;-0.20;96.30;;;;;;4994348;28;20459;-70
2021/03/05 09:03:15;;;;;;;4.90;2.53;;;-0.10;96.30;;;;;;5005039;28;20443;-69
2021/03/05 09:05:42;;;;;;;4.70;2.30;;;0.20;96.30;;;;;;5005216;28;20236;-70
2021/03/05 09:08:10;;;;;;;3.20;1.70;;;0.20;96.30;;;;;;4991374;28;20464;-70
2021/03/05 09:10:46;;;;;;;6.70;2.47;;;0.10;96.30;;;;;;4992094;28;20432;-70
2021/03/05 09:13:13;;;;;;;6.70;2.20;;;0.10;96.30;;;;;;5002969;28;20426;-70
2021/03/05 09:15:45;;;;;;;5.43;2.00;;;1.00;96.30;;;;;;5006227;28;20426;-71
2021/03/05 09:18:14;;;;;;;4.27;1.73;;;1.80;96.30;;;;;;4994759;28;20536;-70
2021/03/05 09:20:44;;;;;;;4.07;2.03;;;2.50;96.30;;;;;;4995195;28;20480;-70
2021/03/05 09:23:18;;;;;;;2.07;1.30;;;2.70;96.30;;;;;;4995550;28;20404;-70
2021/03/05 09:25:54;;;;;;;4.80;2.00;;;2.80;94.20;;;;;;4993840;28;20424;-70
2021/03/05 09:28:22;;;;;;;2.37;1.70;;;2.20;96.30;;;;;;4994998;28;20413;-70
2021/03/05 09:30:52;;;;;;;1.83;1.40;;;1.00;96.30;;;;;;4995229;28;20444;-70
2021/03/05 09:33:24;;;;;;;5.70;1.87;;;0.80;96.30;;;;;;5004069;28;21086;-70
2021/03/05 09:35:50;;;;;;;2.63;1.37;;;0.70;96.30;;;;;;5007457;28;20448;-70
2021/03/05 09:38:16;;;;;;;2.13;1.53;;;0.60;96.30;;;;;;4994349;28;20448;-70
2021/03/05 09:40:41;;;;;;;3.97;1.77;;;0.90;96.30;;;;;;4994776;28;20216;-70
2021/03/05 09:43:13;;;;;;;1.90;1.17;;;1.50;96.30;;;;;;4995069;28;20462;-70
2021/03/05 09:45:42;;;;;;;1.40;1.13;;;2.10;96.10;;;;;;4994579;28;20177;-70
2021/03/05 09:48:25;;;;;;;2.77;1.67;;;2.30;96.30;;;;;;4994482;28;20409;-70
2021/03/05 09:50:58;;;;;;;2.23;1.37;;;2.60;96.10;;;;;;4994548;28;20440;-71
2021/03/05 09:53:27;;;;;;;3.50;1.33;;;2.80;94.50;;;;;;4994985;28;20739;-71
2021/03/05 09:55:55;;;;;;;1.23;1.10;;;2.40;94.20;;;;;;4994224;28;20780;-72
2021/03/05 09:58:21;;;;;;;1.50;1.30;;;1.90;95.70;;;;;;4998492;28;20470;-71
2021/03/05 10:00:47;;;;;;;4.40;1.47;;;0.80;93.50;;;;;;4999224;28;20544;-71
2021/03/05 10:03:14;;;;;;;6.73;1.60;;;0.50;96.30;;;;;;4994870;28;20166;-72
2021/03/05 10:05:43;;;;;;;5.93;1.80;;;1.30;96.30;;;;;;4994123;28;20421;-73
2021/03/05 10:08:28;;;;;;;1.70;1.40;;;2.10;95.40;;;;;;4992758;28;20444;-73
2021/03/05 10:11:06;;;;;;;2.73;1.50;;;1.90;95.40;;;;;;4994611;28;20441;-72
2021/03/05 10:13:42;;;;;;;1.67;1.50;;;2.00;95.30;;;;;;4994348;28;20394;-72
2021/03/05 10:16:13;;;;;;;2.33;2.07;;;2.00;93.10;;;;;;4994355;28;20424;-72
2021/03/05 10:18:39;;;;;;;1.90;1.23;;;1.70;93.70;;;;;;4993892;28;20464;-72
2021/03/05 10:21:08;;;;;;;5.03;1.33;;;1.70;90.50;;;;;;4995677;28;20456;-72
2021/03/05 10:23:34;;;;;;;2.40;1.40;;;2.00;92.90;;;;;;4993195;28;20642;-74
2021/03/05 10:26:00;;;;;;;2.07;1.30;;;2.90;92.30;;;;;;4992504;28;20872;-73
2021/03/05 10:28:27;;;;;;;4.73;3.03;;;3.30;90.10;;;;;;4993674;28;20408;-73
2021/03/05 10:30:53;;;;;;;2.50;1.37;;;3.30;90.10;;;;;;4993490;28;20205;-73
2021/03/05 10:33:43;;;;;;;2.57;1.67;;;3.50;88.40;;;;;;4994139;28;20423;-72
2021/03/05 10:36:11;;;;;;;2.63;1.00;;;4.10;88.30;;;;;;4994975;28;20429;-71
2021/03/05 10:38:37;;;;;;;1.00;0.73;;;2.80;87.10;;;;;;4993409;28;20478;-71
2021/03/05 10:41:04;;;;;;;3.97;1.30;;;1.40;90.50;;;;;;4993570;28;20445;-71
2021/03/05 10:43:30;;;;;;;3.10;1.40;;;0.70;91.40;;;;;;4993489;28;20544;-71
2021/03/05 10:45:56;;;;;;;1.47;0.87;;;0.50;92.90;;;;;;4993568;28;21058;-71
2021/03/05 10:48:21;;;;;;;3.17;1.33;;;0.20;92.60;;;;;;4993043;28;20555;-72
2021/03/05 10:50:47;;;;;;;2.03;1.37;;;0.40;92.40;;;;;;4993546;28;20684;-71
2021/03/05 10:53:12;;;;;;;4.30;1.83;;;0.90;94.20;;;;;;4993538;28;20653;-72
2021/03/05 10:55:38;;;;;;;2.37;1.47;;;1.40;91.10;;;;;;4993484;28;20196;-72
2021/03/05 10:58:04;;;;;;;2.17;1.50;;;2.10;89.60;;;;;;4992758;28;20288;-72
2021/03/05 11:00:29;;;;;;;2.07;1.33;;;2.30;91.20;;;;;;4993545;28;20656;-72
2021/03/05 11:02:55;;;;;;;1.63;1.37;;;2.60;86.40;;;;;;4993746;28;20184;-72
2021/03/05 11:05:21;;;;;;;2.10;1.23;;;2.80;89.20;;;;;;4993691;28;20213;-72
2021/03/05 11:07:46;;;;;;;1.27;0.80;;;3.00;87.20;;;;;;4992736;28;20520;-72
2021/03/05 11:10:13;;;;;;;1.90;1.30;;;2.80;88.80;;;;;;4993171;28;20634;-72
2021/03/05 11:12:38;;;;;;;1.10;0.90;;;2.00;85.70;;;;;;4993079;28;20232;-72
2021/03/05 11:15:04;;;;;;;1.80;1.00;;;1.60;88.30;;;;;;4993066;28;20424;-72
2021/03/05 11:17:30;;;;;;;1.47;1.03;;;1.60;86.30;;;;;;4991298;28;20202;-72
2021/03/05 11:19:57;;;;;;;5.03;1.07;;;1.60;87.50;;;;;;4992621;28;20492;-72
2021/03/05 11:22:23;;;;;;;2.23;1.07;;;2.30;88.30;;;;;;4992924;28;20497;-72
2021/03/05 11:24:48;;;;;;;2.20;0.90;;;2.00;84.80;;;;;;4990855;28;20854;-72
2021/03/05 11:27:14;;;;;;;2.17;1.93;;;1.40;85.10;;;;;;4992392;28;20444;-73
2021/03/05 11:29:39;;;;;;;2.80;1.10;;;2.10;91.50;;;;;;4992583;28;20210;-72
2021/03/05 11:32:06;;;;;;;5.80;3.17;;;2.60;87.50;;;;;;4992406;28;20210;-72
2021/03/05 11:34:32;;;;;;;4.30;0.87;;;2.30;84.50;;;;;;4992057;28;20177;-72
2021/03/05 11:36:57;;;;;;;1.00;0.87;;;1.90;88.60;;;;;;4992226;28;20479;-72
2021/03/05 11:39:23;;;;;;;1.67;0.90;;;1.30;91.60;;;;;;4992740;28;20272;-73
2021/03/05 11:41:48;;;;;;;1.40;0.97;;;0.90;89.70;;;;;;4992761;28;20252;-72
2021/03/05 11:44:14;;;;;;;2.53;0.83;;;0.70;90.00;;;;;;4992862;28;20174;-72
2021/03/05 11:46:40;;;;;;;1.37;0.80;;;0.70;91.10;;;;;;4992006;28;20224;-72
2021/03/05 11:49:06;;;;;;;3.47;0.93;;;1.40;90.90;;;;;;4992103;28;20444;-72
2021/03/05 11:51:31;;;;;;;2.97;1.17;;;2.10;89.90;;;;;;4994962;28;20205;-72
2021/03/05 11:53:57;;;;;;;2.60;1.30;;;2.80;89.80;;;;;;4992633;28;20185;-72
2021/03/05 11:56:22;;;;;;;1.43;1.17;;;2.60;86.80;;;;;;4992400;28;20700;-72
2021/03/05 11:58:48;;;;;;;1.10;0.80;;;2.00;88.60;;;;;;4990578;28;20247;-72
2021/03/05 12:01:13;;;;;;;2.50;0.90;;;1.70;88.80;;;;;;4990852;28;20220;-73
2021/03/05 12:03:40;;;;;;;2.13;0.80;;;1.70;91.80;;;;;;4992386;28;20240;-72
2021/03/05 12:06:06;;;;;;;1.87;1.10;;;1.60;92.60;;;;;;4992166;28;20190;-72
2021/03/05 12:08:32;;;;;;;1.40;0.80;;;1.50;93.60;;;;;;4991945;28;20543;-72
2021/03/05 12:10:57;;;;;;;5.63;1.60;;;1.30;93.10;;;;;;4992260;28;20573;-72
2021/03/05 12:13:23;;;;;;;1.83;1.10;;;1.60;96.00;;;;;;4992212;28;20181;-72
2021/03/05 12:15:48;;;;;;;2.30;0.70;;;1.60;91.30;;;;;;4991943;28;20645;-72
2021/03/05 12:18:14;;;;;;;6.53;1.73;;;1.60;90.00;;;;;;4991762;28;20200;-73
2021/03/05 12:20:39;;;;;;;1.47;0.60;;;1.50;89.30;;;;;;4992171;28;20197;-72
2021/03/05 12:23:06;;;;;;;2.60;0.90;;;1.80;89.70;;;;;;4992500;28;20248;-72
2021/03/05 12:25:32;;;;;;;1.83;0.80;;;1.60;86.90;;;;;;4992186;28;20653;-72
2021/03/05 12:27:57;;;;;;;3.37;1.23;;;1.80;88.70;;;;;;4991500;28;20413;-72
2021/03/05 12:30:24;;;;;;;1.40;0.90;;;2.30;91.00;;;;;;4988979;28;20288;-72
2021/03/05 12:32:50;;;;;;;1.70;0.90;;;2.10;88.20;;;;;;4999368;28;20661;-73
2021/03/05 12:35:16;;;;;;;1.27;1.17;;;1.70;89.10;;;;;;4984758;28;20820;-71
2021/03/05 12:37:43;;;;;;;1.80;0.90;;;1.60;89.80;;;;;;4989953;28;20983;-71
2021/03/05 12:40:10;;;;;;;4.27;1.17;;;1.50;90.50;;;;;;4991917;28;20423;-71
2021/03/05 12:42:36;;;;;;;1.40;0.90;;;1.80;92.70;;;;;;4992244;28;20429;-71
2021/03/05 12:45:06;;;;;;;2.93;0.70;;;2.60;93.50;;;;;;4991940;28;20431;-71
2021/03/05 12:47:32;;;;;;;2.47;1.10;;;3.00;90.30;;;;;;4994663;28;20212;-71
2021/03/05 12:49:57;;;;;;;3.40;0.90;;;3.40;90.20;;;;;;4989905;28;20464;-71
2021/03/05 12:52:23;;;;;;;1.40;0.80;;;3.90;90.60;;;;;;4995798;28;20240;-71
2021/03/05 12:54:48;;;;;;;1.43;0.90;;;4.10;86.70;;;;;;4995738;28;20181;-71
2021/03/05 12:57:14;;;;;;;1.73;0.80;;;3.50;86.70;;;;;;4995090;28;20662;-71
2021/03/05 12:59:39;;;;;;;2.43;1.00;;;2.70;87.80;;;;;;4995641;28;20198;-71
2021/03/05 13:02:05;;;;;;;2.33;0.90;;;2.20;91.40;;;;;;4994458;28;20217;-71
2021/03/05 13:04:30;;;;;;;0.80;0.70;;;1.70;94.00;;;;;;4995675;28;20749;-71
2021/03/05 13:06:56;;;;;;;1.53;1.03;;;1.20;95.00;;;;;;4994685;28;20211;-71
2021/03/05 13:09:21;;;;;;;1.53;0.80;;;1.10;96.30;;;;;;4995645;28;20665;-71
2021/03/05 13:11:47;;;;;;;1.00;0.70;;;0.90;94.20;;;;;;5000929;28;20276;-71
2021/03/05 13:14:12;;;;;;;2.27;0.83;;;0.80;94.90;;;;;;4995618;28;20630;-71
2021/03/05 13:16:38;;;;;;;1.83;0.83;;;0.70;96.20;;;;;;4995194;28;20220;-71
2021/03/05 13:19:03;;;;;;;1.43;1.00;;;1.30;96.30;;;;;;4994403;28;20193;-71
2021/03/05 13:21:30;;;;;;;3.67;0.90;;;2.00;94.00;;;;;;4995452;28;20198;-71
2021/03/05 13:23:55;;;;;;;3.10;1.00;;;2.50;91.20;;;;;;4995445;28;20170;-71
2021/03/05 13:26:21;;;;;;;3.70;1.10;;;2.50;89.50;;;;;;4994501;28;20913;-71
2021/03/05 13:28:47;;;;;;;1.50;0.90;;;2.50;87.70;;;;;;4986516;28;20166;-71
2021/03/05 13:31:14;;;;;;;2.53;1.00;;;2.40;89.60;;;;;;4991547;28;20441;-71
2021/03/05 13:33:39;;;;;;;2.03;0.77;;;2.00;88.40;;;;;;4975582;28;20504;-72
2021/03/05 13:36:05;;;;;;;1.43;0.80;;;2.00;89.30;;;;;;4992615;28;20508;-72
2021/03/05 13:38:31;;;;;;;2.43;0.90;;;2.00;89.20;;;;;;4990845;28;20241;-73
2021/03/05 13:40:57;;;;;;;2.07;0.97;;;1.80;87.80;;;;;;4986715;28;20448;-71
2021/03/05 13:43:26;;;;;;;1.60;1.10;;;1.50;88.00;;;;;;4994941;28;20248;-70
2021/03/05 13:45:52;;;;;;;1.30;1.00;;;1.40;88.40;;;;;;4996195;28;20932;-71
2021/03/05 13:48:18;;;;;;;1.20;0.90;;;1.40;87.90;;;;;;4986540;28;20452;-71
2021/03/05 13:50:44;;;;;;;2.93;1.07;;;1.40;90.00;;;;;;4975683;28;20634;-71
2021/03/05 13:53:10;;;;;;;1.80;0.90;;;1.50;90.70;;;;;;4975574;28;20414;-72
2021/03/05 13:55:36;;;;;;;1.30;0.80;;;1.40;88.80;;;;;;4975683;28;20416;-71
2021/03/05 13:58:02;;;;;;;1.20;1.00;;;1.40;88.60;;;;;;4974784;28;20449;-73
2021/03/05 14:00:28;;;;;;;3.13;1.47;;;1.50;89.30;;;;;;4994536;28;20181;-72
2021/03/05 14:02:54;;;;;;;5.27;1.47;;;1.50;90.60;;;;;;4994959;28;20428;-72
2021/03/05 14:05:20;;;;;;;4.20;1.13;;;1.30;88.10;;;;;;4994944;28;20413;-72
2021/03/05 14:07:45;;;;;;;2.30;1.47;;;1.30;92.70;;;;;;4994251;28;20208;-72
2021/03/05 14:10:11;;;;;;;1.73;1.10;;;1.30;91.50;;;;;;4994815;28;20178;-72
2021/03/05 14:12:37;;;;;;;1.53;1.10;;;1.20;92.10;;;;;;4994520;28;20729;-72
2021/03/05 14:15:04;;;;;;;2.20;1.10;;;1.30;93.00;;;;;;4993554;28;20417;-72
2021/03/05 14:17:29;;;;;;;2.60;0.97;;;1.30;90.00;;;;;;4993873;28;20197;-72
2021/03/05 14:19:54;;;;;;;1.70;1.20;;;1.40;92.00;;;;;;4978691;28;20426;-72
2021/03/05 14:22:20;;;;;;;2.13;1.20;;;1.90;90.30;;;;;;4989039;28;20245;-72
2021/03/05 14:24:46;;;;;;;1.30;1.03;;;2.50;88.80;;;;;;4991666;28;20231;-72
2021/03/05 14:27:11;;;;;;;1.90;1.03;;;2.50;84.50;;;;;;4988247;28;20232;-72
2021/03/05 14:29:37;;;;;;;1.50;1.10;;;2.30;86.20;;;;;;4994560;28;20173;-74
2021/03/05 14:32:03;;;;;;;2.10;1.27;;;2.20;85.60;;;;;;4993814;28;20264;-73
2021/03/05 14:34:28;;;;;;;2.90;1.17;;;2.10;87.10;;;;;;4994304;28;20912;-72
2021/03/05 14:36:54;;;;;;;1.73;1.10;;;2.20;86.60;;;;;;4992692;28;20204;-72
2021/03/05 14:39:19;;;;;;;3.40;1.50;;;2.00;84.90;;;;;;4992484;28;20209;-73
2021/03/05 14:41:45;;;;;;;4.87;1.60;;;2.10;86.10;;;;;;4994311;28;20268;-72
2021/03/05 14:44:10;;;;;;;2.37;1.20;;;2.50;87.60;;;;;;4994314;28;20617;-73
2021/03/05 14:46:36;;;;;;;2.03;1.23;;;2.80;85.20;;;;;;4993199;28;20177;-73
2021/03/05 14:49:02;;;;;;;2.97;1.53;;;2.40;84.70;;;;;;5013039;28;20263;-72
2021/03/05 14:51:28;;;;;;;2.10;0.97;;;2.00;85.60;;;;;;5013842;28;20197;-72
2021/03/05 14:53:53;;;;;;;7.97;1.43;;;1.80;84.90;;;;;;5012168;28;20420;-75
2021/03/05 14:56:19;;;;;;;1.43;1.20;;;1.60;85.40;;;;;;4990227;28;20196;-72
2021/03/05 14:58:45;;;;;;;5.00;2.40;;;1.60;85.90;;;;;;4991999;28;20185;-73
2021/03/05 15:01:10;;;;;;;1.73;1.10;;;1.70;86.70;;;;;;5004157;28;20221;-72
2021/03/05 15:03:36;;;;;;;2.90;1.30;;;1.60;86.40;;;;;;5007963;28;20412;-72
2021/03/05 15:06:02;;;;;;;3.63;1.47;;;1.50;86.50;;;;;;5007591;28;20181;-72
2021/03/05 15:08:27;;;;;;;1.93;1.47;;;1.40;85.40;;;;;;5012472;28;20180;-72
2021/03/05 15:10:53;;;;;;;2.20;1.30;;;1.50;88.80;;;;;;5012918;28;20211;-72
2021/03/05 15:13:19;;;;;;;1.93;1.53;;;1.50;87.90;;;;;;4997578;28;20193;-73
2021/03/05 15:15:45;;;;;;;2.50;1.70;;;1.40;86.90;;;;;;4993575;28;20209;-72
2021/03/05 15:18:10;;;;;;;2.17;1.30;;;1.30;88.00;;;;;;5004730;28;20895;-74
2021/03/05 15:20:36;;;;;;;3.60;1.63;;;1.30;87.50;;;;;;5013322;28;20189;-74
2021/03/05 15:23:02;;;;;;;2.17;1.50;;;1.50;87.70;;;;;;5012960;28;20169;-72
2021/03/05 15:25:28;;;;;;;3.80;1.47;;;1.60;88.50;;;;;;5013283;28;20545;-72
2021/03/05 15:27:53;;;;;;;1.47;0.90;;;1.70;88.00;;;;;;5011352;28;20177;-72
2021/03/05 15:30:20;;;;;;;2.03;1.37;;;1.80;86.40;;;;;;5012800;28;20177;-74
2021/03/05 15:32:45;;;;;;;3.03;1.27;;;1.80;85.70;;;;;;5008049;28;20186;-72
2021/03/05 15:35:12;;;;;;;2.40;1.37;;;1.70;86.50;;;;;;5003018;28;20912;-74
2021/03/05 15:37:37;;;;;;;3.30;1.80;;;1.80;87.10;;;;;;5010925;28;20201;-73
2021/03/05 15:40:05;;;;;;;2.00;1.43;;;1.80;87.00;;;;;;5012684;28;20412;-73
2021/03/05 15:42:30;;;;;;;3.03;1.17;;;1.80;86.90;;;;;;5012769;28;20661;-73
2021/03/05 15:44:56;;;;;;;3.33;1.37;;;1.80;87.30;;;;;;5011502;28;20404;-73
2021/03/05 15:47:21;;;;;;;1.73;1.10;;;1.60;85.10;;;;;;4992555;28;20630;-73
2021/03/05 15:49:47;;;;;;;1.87;1.20;;;1.50;87.10;;;;;;4992753;28;20173;-73
2021/03/05 15:52:12;;;;;;;2.23;1.30;;;1.50;87.80;;;;;;4982343;28;20657;-73
2021/03/05 15:54:38;;;;;;;1.97;1.30;;;1.50;87.90;;;;;;4974047;28;20257;-73
2021/03/05 15:57:03;;;;;;;1.70;1.20;;;1.50;88.10;;;;;;4987159;28;20185;-72
2021/03/05 15:59:29;;;;;;;1.30;1.20;;;1.30;87.10;;;;;;4991116;28;20232;-72
2021/03/05 16:01:54;;;;;;;2.20;1.37;;;1.30;88.70;;;;;;4978606;28;20232;-72
2021/03/05 16:04:23;;;;;;;5.70;1.33;;;1.20;88.60;;;;;;4985031;28;20248;-74
2021/03/05 16:06:49;;;;;;;3.33;1.23;;;1.10;91.50;;;;;;4992251;28;20257;-72
2021/03/05 16:09:15;;;;;;;1.30;1.13;;;1.00;91.00;;;;;;4989834;28;20501;-72
2021/03/05 16:11:40;;;;;;;2.67;1.27;;;0.90;91.70;;;;;;4972523;28;20193;-72
2021/03/05 16:14:06;;;;;;;2.23;1.90;;;0.70;94.20;;;;;;4993855;28;20715;-73
2021/03/05 16:16:32;;;;;;;1.93;1.07;;;0.50;95.70;;;;;;5005073;28;20181;-73
2021/03/05 16:18:57;;;;;;;1.57;1.10;;;0.30;92.00;;;;;;4992762;28;20229;-73
2021/03/05 16:21:23;;;;;;;1.70;0.90;;;0.20;93.00;;;;;;4995900;28;20239;-73
2021/03/05 16:23:48;;;;;;;1.43;0.80;;;0.10;92.70;;;;;;5001200;28;20192;-70
2021/03/05 16:26:14;;;;;;;1.77;1.10;;;-0.10;92.80;;;;;;4997010;28;20200;-75
2021/03/05 16:28:39;;;;;;;1.50;1.20;;;-0.20;95.40;;;;;;4996590;28;20668;-72
2021/03/05 16:31:05;;;;;;;1.20;0.90;;;-0.30;95.70;;;;;;4996870;28;20198;-73
2021/03/05 16:33:31;;;;;;;1.53;0.90;;;-0.40;94.80;;;;;;4997678;28;20185;-71
2021/03/05 16:35:56;;;;;;;1.40;0.80;;;-0.40;95.20;;;;;;4997267;28;20169;-71
2021/03/05 16:38:22;;;;;;;5.33;1.20;;;-0.50;94.30;;;;;;4996576;28;20661;-71
2021/03/05 16:40:48;;;;;;;1.93;1.40;;;-0.40;95.60;;;;;;4996935;28;20229;-72
2021/03/05 16:43:13;;;;;;;1.87;1.17;;;-0.60;96.30;;;;;;4995759;28;20537;-73
2021/03/05 16:45:39;;;;;;;2.70;1.10;;;-0.80;96.30;;;;;;4995384;28;20563;-70
2021/03/05 16:48:05;;;;;;;2.30;1.10;;;-0.90;96.30;;;;;;4996448;28;20208;-70
2021/03/05 16:50:31;;;;;;;2.80;0.90;;;-1.10;96.30;;;;;;4995201;28;20206;-70
2021/03/05 16:52:56;;;;;;;1.13;0.97;;;-1.30;96.30;;;;;;4996910;28;20917;-71
2021/03/05 16:55:22;;;;;;;1.40;1.10;;;-1.40;96.30;;;;;;4992412;28;20190;-71